sensor_id;sensor_type;location;lat;lon;timestamp;P1;durP1;ratioP1;P2;durP2;ratioP2
13311;SDS011;34033;48.672;9.376;2023-03-05T00:02:06;14.97;;;8.03;;
13311;SDS011;34033;48.672;9.376;2023-03-05T00:04:31;17.17;;;8.53;;
13311;SDS011;34033;48.672;9.376;2023-03-05T00:06:56;18.07;;;9.40;;
13311;SDS011;34033;48.672;9.376;2023-03-05T00:09:22;13.07;;;8.30;;
13311;SDS011;34033;48.672;9.376;2023-03-05T00:11:47;14.10;;;7.67;;
13311;SDS011;34033;48.672;9.376;2023-03-05T00:14:13;13.33;;;7.73;;
13311;SDS011;34033;48.672;9.376;2023-03-05T00:16:38;14.37;;;8.43;;
13311;SDS011;34033;48.672;9.376;2023-03-05T00:19:04;14.13;;;7.53;;
13311;SDS011;34033;48.672;9.376;2023-03-05T00:21:31;14.80;;;8.27;;
13311;SDS011;34033;48.672;9.376;2023-03-05T00:23:59;15.97;;;8.27;;
13311;SDS011;34033;48.672;9.376;2023-03-05T00:26:26;15.50;;;8.57;;
13311;SDS011;34033;48.672;9.376;2023-03-05T00:28:52;17.33;;;8.20;;
13311;SDS011;34033;48.672;9.376;2023-03-05T00:31:20;14.57;;;8.80;;
13311;SDS011;34033;48.672;9.376;2023-03-05T00:33:52;16.00;;;8.53;;
13311;SDS011;34033;48.672;9.376;2023-03-05T00:36:18;12.73;;;7.53;;
13311;SDS011;34033;48.672;9.376;2023-03-05T00:38:43;13.43;;;8.17;;
13311;SDS011;34033;48.672;9.376;2023-03-05T00:41:09;14.90;;;8.87;;
13311;SDS011;34033;48.672;9.376;2023-03-05T00:43:34;13.13;;;7.87;;
13311;SDS011;34033;48.672;9.376;2023-03-05T00:45:59;16.33;;;8.40;;
13311;SDS011;34033;48.672;9.376;2023-03-05T00:48:25;16.23;;;8.17;;
13311;SDS011;34033;48.672;9.376;2023-03-05T00:50:51;16.10;;;8.03;;
13311;SDS011;34033;48.672;9.376;2023-03-05T00:53:16;15.43;;;7.77;;
13311;SDS011;34033;48.672;9.376;2023-03-05T00:55:42;14.23;;;8.00;;
13311;SDS011;34033;48.672;9.376;2023-03-05T00:58:07;14.33;;;7.47;;
13311;SDS011;34033;48.672;9.376;2023-03-05T01:00:33;13.90;;;8.57;;
13311;SDS011;34033;48.672;9.376;2023-03-05T01:02:58;13.77;;;8.20;;
13311;SDS011;34033;48.672;9.376;2023-03-05T01:05:24;13.67;;;7.97;;
13311;SDS011;34033;48.672;9.376;2023-03-05T01:07:52;16.30;;;8.13;;
13311;SDS011;34033;48.672;9.376;2023-03-05T01:10:19;15.87;;;7.80;;
13311;SDS011;34033;48.672;9.376;2023-03-05T01:12:44;15.00;;;8.40;;
13311;SDS011;34033;48.672;9.376;2023-03-05T01:15:10;17.20;;;8.10;;
13311;SDS011;34033;48.672;9.376;2023-03-05T01:17:35;14.77;;;8.10;;
13311;SDS011;34033;48.672;9.376;2023-03-05T01:20:01;13.03;;;7.33;;
13311;SDS011;34033;48.672;9.376;2023-03-05T01:22:27;15.37;;;8.67;;
13311;SDS011;34033;48.672;9.376;2023-03-05T01:24:53;16.43;;;8.63;;
13311;SDS011;34033;48.672;9.376;2023-03-05T01:27:18;13.33;;;7.97;;
13311;SDS011;34033;48.672;9.376;2023-03-05T01:29:43;14.63;;;7.87;;
13311;SDS011;34033;48.672;9.376;2023-03-05T01:32:09;13.27;;;7.90;;
13311;SDS011;34033;48.672;9.376;2023-03-05T01:34:37;15.93;;;8.10;;
13311;SDS011;34033;48.672;9.376;2023-03-05T01:37:02;14.80;;;7.83;;
13311;SDS011;34033;48.672;9.376;2023-03-05T01:39:27;13.30;;;7.27;;
13311;SDS011;34033;48.672;9.376;2023-03-05T01:41:53;15.33;;;8.40;;
13311;SDS011;34033;48.672;9.376;2023-03-05T01:44:23;13.67;;;7.73;;
13311;SDS011;34033;48.672;9.376;2023-03-05T01:46:50;12.60;;;7.53;;
13311;SDS011;34033;48.672;9.376;2023-03-05T01:49:23;16.90;;;8.53;;
13311;SDS011;34033;48.672;9.376;2023-03-05T01:54:31;15.03;;;8.10;;
13311;SDS011;34033;48.672;9.376;2023-03-05T01:57:08;13.87;;;7.63;;
13311;SDS011;34033;48.672;9.376;2023-03-05T01:59:37;13.83;;;8.07;;
13311;SDS011;34033;48.672;9.376;2023-03-05T02:02:05;13.07;;;7.70;;
13311;SDS011;34033;48.672;9.376;2023-03-05T02:04:35;14.23;;;7.83;;
13311;SDS011;34033;48.672;9.376;2023-03-05T02:07:05;15.30;;;8.00;;
13311;SDS011;34033;48.672;9.376;2023-03-05T02:09:31;13.20;;;8.20;;
13311;SDS011;34033;48.672;9.376;2023-03-05T02:11:57;14.73;;;8.07;;
13311;SDS011;34033;48.672;9.376;2023-03-05T02:14:23;13.43;;;7.90;;
13311;SDS011;34033;48.672;9.376;2023-03-05T02:16:49;14.57;;;8.33;;
13311;SDS011;34033;48.672;9.376;2023-03-05T02:19:15;15.23;;;7.33;;
13311;SDS011;34033;48.672;9.376;2023-03-05T02:21:42;12.50;;;7.00;;
13311;SDS011;34033;48.672;9.376;2023-03-05T02:24:10;14.20;;;7.60;;
13311;SDS011;34033;48.672;9.376;2023-03-05T02:26:41;12.23;;;7.40;;
13311;SDS011;34033;48.672;9.376;2023-03-05T02:29:08;16.00;;;7.30;;
13311;SDS011;34033;48.672;9.376;2023-03-05T02:31:36;14.57;;;7.97;;
13311;SDS011;34033;48.672;9.376;2023-03-05T02:34:03;11.60;;;7.60;;
13311;SDS011;34033;48.672;9.376;2023-03-05T02:36:29;12.43;;;7.40;;
13311;SDS011;34033;48.672;9.376;2023-03-05T02:38:54;15.43;;;7.93;;
13311;SDS011;34033;48.672;9.376;2023-03-05T02:41:21;15.93;;;7.80;;
13311;SDS011;34033;48.672;9.376;2023-03-05T02:43:46;12.93;;;7.97;;
13311;SDS011;34033;48.672;9.376;2023-03-05T02:46:12;13.00;;;7.53;;
13311;SDS011;34033;48.672;9.376;2023-03-05T02:48:37;13.40;;;7.37;;
13311;SDS011;34033;48.672;9.376;2023-03-05T02:51:02;14.67;;;7.83;;
13311;SDS011;34033;48.672;9.376;2023-03-05T02:53:30;13.80;;;7.47;;
13311;SDS011;34033;48.672;9.376;2023-03-05T02:55:56;12.43;;;7.47;;
13311;SDS011;34033;48.672;9.376;2023-03-05T02:58:21;17.03;;;8.43;;
13311;SDS011;34033;48.672;9.376;2023-03-05T03:00:47;16.17;;;8.77;;
13311;SDS011;34033;48.672;9.376;2023-03-05T03:03:12;15.20;;;8.40;;
13311;SDS011;34033;48.672;9.376;2023-03-05T03:05:38;15.83;;;8.80;;
13311;SDS011;34033;48.672;9.376;2023-03-05T03:08:04;12.07;;;7.73;;
13311;SDS011;34033;48.672;9.376;2023-03-05T03:10:30;16.43;;;8.70;;
13311;SDS011;34033;48.672;9.376;2023-03-05T03:12:55;14.90;;;7.17;;
13311;SDS011;34033;48.672;9.376;2023-03-05T03:15:20;14.73;;;8.73;;
13311;SDS011;34033;48.672;9.376;2023-03-05T03:17:46;12.83;;;7.57;;
13311;SDS011;34033;48.672;9.376;2023-03-05T03:20:12;12.40;;;6.87;;
13311;SDS011;34033;48.672;9.376;2023-03-05T03:22:40;13.57;;;7.50;;
13311;SDS011;34033;48.672;9.376;2023-03-05T03:25:07;15.83;;;8.50;;
13311;SDS011;34033;48.672;9.376;2023-03-05T03:27:34;15.70;;;8.00;;
13311;SDS011;34033;48.672;9.376;2023-03-05T03:30:00;13.33;;;7.87;;
13311;SDS011;34033;48.672;9.376;2023-03-05T03:32:28;13.53;;;8.30;;
13311;SDS011;34033;48.672;9.376;2023-03-05T03:34:55;22.23;;;8.50;;
13311;SDS011;34033;48.672;9.376;2023-03-05T03:37:20;13.87;;;8.07;;
13311;SDS011;34033;48.672;9.376;2023-03-05T03:39:45;14.67;;;8.10;;
13311;SDS011;34033;48.672;9.376;2023-03-05T03:42:11;14.33;;;8.67;;
13311;SDS011;34033;48.672;9.376;2023-03-05T03:44:36;14.17;;;8.27;;
13311;SDS011;34033;48.672;9.376;2023-03-05T03:47:02;15.03;;;8.07;;
13311;SDS011;34033;48.672;9.376;2023-03-05T03:49:27;12.60;;;7.50;;
13311;SDS011;34033;48.672;9.376;2023-03-05T03:51:52;12.53;;;7.57;;
13311;SDS011;34033;48.672;9.376;2023-03-05T03:54:19;16.20;;;8.63;;
13311;SDS011;34033;48.672;9.376;2023-03-05T03:56:45;13.03;;;7.67;;
13311;SDS011;34033;48.672;9.376;2023-03-05T03:59:11;15.90;;;8.70;;
13311;SDS011;34033;48.672;9.376;2023-03-05T04:01:37;15.97;;;8.47;;
13311;SDS011;34033;48.672;9.376;2023-03-05T04:04:02;13.57;;;7.43;;
13311;SDS011;34033;48.672;9.376;2023-03-05T04:06:28;14.17;;;8.30;;
13311;SDS011;34033;48.672;9.376;2023-03-05T04:08:54;13.67;;;7.70;;
13311;SDS011;34033;48.672;9.376;2023-03-05T04:11:19;13.17;;;7.47;;
13311;SDS011;34033;48.672;9.376;2023-03-05T04:13:45;14.57;;;8.27;;
13311;SDS011;34033;48.672;9.376;2023-03-05T04:16:12;12.80;;;7.97;;
13311;SDS011;34033;48.672;9.376;2023-03-05T04:18:38;15.37;;;8.13;;
13311;SDS011;34033;48.672;9.376;2023-03-05T04:21:03;17.30;;;8.73;;
13311;SDS011;34033;48.672;9.376;2023-03-05T04:23:29;15.00;;;8.13;;
13311;SDS011;34033;48.672;9.376;2023-03-05T04:25:55;14.30;;;8.17;;
13311;SDS011;34033;48.672;9.376;2023-03-05T04:28:20;15.63;;;8.60;;
13311;SDS011;34033;48.672;9.376;2023-03-05T04:30:45;20.07;;;8.43;;
13311;SDS011;34033;48.672;9.376;2023-03-05T04:33:11;17.97;;;9.17;;
13311;SDS011;34033;48.672;9.376;2023-03-05T04:35:36;13.93;;;8.43;;
13311;SDS011;34033;48.672;9.376;2023-03-05T04:38:01;15.87;;;8.50;;
13311;SDS011;34033;48.672;9.376;2023-03-05T04:40:27;14.67;;;8.10;;
13311;SDS011;34033;48.672;9.376;2023-03-05T04:42:52;15.27;;;8.27;;
13311;SDS011;34033;48.672;9.376;2023-03-05T04:45:18;17.67;;;8.80;;
13311;SDS011;34033;48.672;9.376;2023-03-05T04:47:43;12.10;;;7.47;;
13311;SDS011;34033;48.672;9.376;2023-03-05T04:50:09;15.10;;;7.83;;
13311;SDS011;34033;48.672;9.376;2023-03-05T04:52:38;13.57;;;8.43;;
13311;SDS011;34033;48.672;9.376;2023-03-05T04:55:07;14.47;;;7.23;;
13311;SDS011;34033;48.672;9.376;2023-03-05T04:57:34;15.63;;;8.60;;
13311;SDS011;34033;48.672;9.376;2023-03-05T04:59:59;17.53;;;9.10;;
13311;SDS011;34033;48.672;9.376;2023-03-05T05:02:25;13.23;;;8.17;;
13311;SDS011;34033;48.672;9.376;2023-03-05T05:04:53;13.27;;;7.60;;
13311;SDS011;34033;48.672;9.376;2023-03-05T05:07:19;14.93;;;8.67;;
13311;SDS011;34033;48.672;9.376;2023-03-05T05:09:44;14.57;;;8.13;;
13311;SDS011;34033;48.672;9.376;2023-03-05T05:12:09;16.83;;;8.00;;
13311;SDS011;34033;48.672;9.376;2023-03-05T05:14:35;15.17;;;7.90;;
13311;SDS011;34033;48.672;9.376;2023-03-05T05:17:01;14.60;;;7.57;;
13311;SDS011;34033;48.672;9.376;2023-03-05T05:19:29;16.73;;;8.50;;
13311;SDS011;34033;48.672;9.376;2023-03-05T05:21:55;15.27;;;8.23;;
13311;SDS011;34033;48.672;9.376;2023-03-05T05:24:20;18.87;;;7.90;;
13311;SDS011;34033;48.672;9.376;2023-03-05T05:26:46;13.00;;;7.87;;
13311;SDS011;34033;48.672;9.376;2023-03-05T05:29:11;19.57;;;9.63;;
13311;SDS011;34033;48.672;9.376;2023-03-05T05:31:36;14.67;;;8.47;;
13311;SDS011;34033;48.672;9.376;2023-03-05T05:34:02;16.93;;;8.63;;
13311;SDS011;34033;48.672;9.376;2023-03-05T05:36:28;16.13;;;8.77;;
13311;SDS011;34033;48.672;9.376;2023-03-05T05:38:53;15.03;;;8.13;;
13311;SDS011;34033;48.672;9.376;2023-03-05T05:41:19;13.50;;;7.80;;
13311;SDS011;34033;48.672;9.376;2023-03-05T05:43:45;13.50;;;7.63;;
13311;SDS011;34033;48.672;9.376;2023-03-05T05:46:11;16.27;;;8.50;;
13311;SDS011;34033;48.672;9.376;2023-03-05T05:48:41;13.53;;;8.00;;
13311;SDS011;34033;48.672;9.376;2023-03-05T05:51:08;15.97;;;9.00;;
13311;SDS011;34033;48.672;9.376;2023-03-05T05:53:35;12.63;;;7.50;;
13311;SDS011;34033;48.672;9.376;2023-03-05T05:56:03;15.83;;;8.70;;
13311;SDS011;34033;48.672;9.376;2023-03-05T05:58:29;14.83;;;7.77;;
13311;SDS011;34033;48.672;9.376;2023-03-05T06:00:55;15.70;;;8.83;;
13311;SDS011;34033;48.672;9.376;2023-03-05T06:03:20;14.67;;;7.93;;
13311;SDS011;34033;48.672;9.376;2023-03-05T06:05:45;17.23;;;8.17;;
13311;SDS011;34033;48.672;9.376;2023-03-05T06:08:11;15.00;;;7.97;;
13311;SDS011;34033;48.672;9.376;2023-03-05T06:10:37;15.27;;;8.23;;
13311;SDS011;34033;48.672;9.376;2023-03-05T06:13:02;15.60;;;9.03;;
13311;SDS011;34033;48.672;9.376;2023-03-05T06:15:28;15.47;;;8.40;;
13311;SDS011;34033;48.672;9.376;2023-03-05T06:17:53;13.83;;;7.87;;
13311;SDS011;34033;48.672;9.376;2023-03-05T06:20:19;15.30;;;8.53;;
13311;SDS011;34033;48.672;9.376;2023-03-05T06:22:45;15.63;;;8.57;;
13311;SDS011;34033;48.672;9.376;2023-03-05T06:25:10;16.50;;;8.47;;
13311;SDS011;34033;48.672;9.376;2023-03-05T06:27:36;16.47;;;8.50;;
13311;SDS011;34033;48.672;9.376;2023-03-05T06:30:03;16.80;;;8.30;;
13311;SDS011;34033;48.672;9.376;2023-03-05T06:32:30;17.13;;;8.97;;
13311;SDS011;34033;48.672;9.376;2023-03-05T06:34:56;13.57;;;8.17;;
13311;SDS011;34033;48.672;9.376;2023-03-05T06:37:21;15.50;;;8.57;;
13311;SDS011;34033;48.672;9.376;2023-03-05T06:39:46;18.47;;;8.90;;
13311;SDS011;34033;48.672;9.376;2023-03-05T06:42:12;15.37;;;8.23;;
13311;SDS011;34033;48.672;9.376;2023-03-05T06:44:38;13.40;;;8.07;;
13311;SDS011;34033;48.672;9.376;2023-03-05T06:47:05;13.13;;;7.20;;
13311;SDS011;34033;48.672;9.376;2023-03-05T06:49:31;13.17;;;7.57;;
13311;SDS011;34033;48.672;9.376;2023-03-05T06:51:56;13.47;;;8.07;;
13311;SDS011;34033;48.672;9.376;2023-03-05T06:54:21;14.60;;;7.47;;
13311;SDS011;34033;48.672;9.376;2023-03-05T06:56:47;17.73;;;9.37;;
13311;SDS011;34033;48.672;9.376;2023-03-05T06:59:13;16.93;;;8.70;;
13311;SDS011;34033;48.672;9.376;2023-03-05T07:01:40;14.13;;;8.40;;
13311;SDS011;34033;48.672;9.376;2023-03-05T07:04:06;14.77;;;8.43;;
13311;SDS011;34033;48.672;9.376;2023-03-05T07:06:32;15.27;;;9.03;;
13311;SDS011;34033;48.672;9.376;2023-03-05T07:09:01;15.43;;;8.13;;
13311;SDS011;34033;48.672;9.376;2023-03-05T07:11:27;13.13;;;8.17;;
13311;SDS011;34033;48.672;9.376;2023-03-05T07:13:54;17.87;;;8.73;;
13311;SDS011;34033;48.672;9.376;2023-03-05T07:16:23;16.10;;;9.27;;
13311;SDS011;34033;48.672;9.376;2023-03-05T07:18:50;14.73;;;7.60;;
13311;SDS011;34033;48.672;9.376;2023-03-05T07:21:17;16.33;;;8.30;;
13311;SDS011;34033;48.672;9.376;2023-03-05T07:23:44;14.27;;;8.50;;
13311;SDS011;34033;48.672;9.376;2023-03-05T07:26:10;14.00;;;7.97;;
13311;SDS011;34033;48.672;9.376;2023-03-05T07:28:36;13.50;;;8.40;;
13311;SDS011;34033;48.672;9.376;2023-03-05T07:31:05;17.00;;;9.30;;
13311;SDS011;34033;48.672;9.376;2023-03-05T07:33:32;17.60;;;8.60;;
13311;SDS011;34033;48.672;9.376;2023-03-05T07:36:00;14.90;;;8.87;;
13311;SDS011;34033;48.672;9.376;2023-03-05T07:38:26;16.60;;;8.87;;
13311;SDS011;34033;48.672;9.376;2023-03-05T07:40:52;15.50;;;8.37;;
13311;SDS011;34033;48.672;9.376;2023-03-05T07:43:17;19.00;;;8.80;;
13311;SDS011;34033;48.672;9.376;2023-03-05T07:45:43;14.67;;;8.33;;
13311;SDS011;34033;48.672;9.376;2023-03-05T07:48:14;13.90;;;8.20;;
13311;SDS011;34033;48.672;9.376;2023-03-05T07:50:41;12.37;;;7.53;;
13311;SDS011;34033;48.672;9.376;2023-03-05T07:53:07;14.10;;;8.00;;
13311;SDS011;34033;48.672;9.376;2023-03-05T07:55:33;13.87;;;7.80;;
13311;SDS011;34033;48.672;9.376;2023-03-05T07:57:59;14.07;;;8.27;;
13311;SDS011;34033;48.672;9.376;2023-03-05T08:00:24;13.97;;;8.17;;
13311;SDS011;34033;48.672;9.376;2023-03-05T08:02:50;11.40;;;7.37;;
13311;SDS011;34033;48.672;9.376;2023-03-05T08:05:15;16.07;;;9.03;;
13311;SDS011;34033;48.672;9.376;2023-03-05T08:07:40;15.87;;;9.10;;
13311;SDS011;34033;48.672;9.376;2023-03-05T08:10:06;13.33;;;7.83;;
13311;SDS011;34033;48.672;9.376;2023-03-05T08:12:33;13.43;;;7.20;;
13311;SDS011;34033;48.672;9.376;2023-03-05T08:14:58;15.90;;;8.13;;
13311;SDS011;34033;48.672;9.376;2023-03-05T08:17:23;15.37;;;8.50;;
13311;SDS011;34033;48.672;9.376;2023-03-05T08:19:49;12.00;;;7.77;;
13311;SDS011;34033;48.672;9.376;2023-03-05T08:22:14;15.27;;;8.30;;
13311;SDS011;34033;48.672;9.376;2023-03-05T08:24:41;23.10;;;8.50;;
13311;SDS011;34033;48.672;9.376;2023-03-05T08:27:07;14.53;;;8.00;;
13311;SDS011;34033;48.672;9.376;2023-03-05T08:29:32;12.60;;;8.03;;
13311;SDS011;34033;48.672;9.376;2023-03-05T08:31:58;14.53;;;7.73;;
13311;SDS011;34033;48.672;9.376;2023-03-05T08:34:23;17.73;;;9.13;;
13311;SDS011;34033;48.672;9.376;2023-03-05T08:36:49;16.57;;;8.97;;
13311;SDS011;34033;48.672;9.376;2023-03-05T08:39:14;16.43;;;8.27;;
13311;SDS011;34033;48.672;9.376;2023-03-05T08:41:40;15.43;;;8.90;;
13311;SDS011;34033;48.672;9.376;2023-03-05T08:44:05;14.63;;;7.93;;
13311;SDS011;34033;48.672;9.376;2023-03-05T08:46:31;14.63;;;8.30;;
13311;SDS011;34033;48.672;9.376;2023-03-05T08:48:56;15.13;;;8.80;;
13311;SDS011;34033;48.672;9.376;2023-03-05T08:51:22;14.47;;;8.47;;
13311;SDS011;34033;48.672;9.376;2023-03-05T08:53:50;15.07;;;8.23;;
13311;SDS011;34033;48.672;9.376;2023-03-05T08:56:16;14.27;;;8.20;;
13311;SDS011;34033;48.672;9.376;2023-03-05T08:58:42;15.10;;;8.07;;
13311;SDS011;34033;48.672;9.376;2023-03-05T09:01:08;13.07;;;7.63;;
13311;SDS011;34033;48.672;9.376;2023-03-05T09:03:33;15.57;;;7.97;;
13311;SDS011;34033;48.672;9.376;2023-03-05T09:06:03;12.57;;;7.83;;
13311;SDS011;34033;48.672;9.376;2023-03-05T09:08:30;13.57;;;7.90;;
13311;SDS011;34033;48.672;9.376;2023-03-05T09:10:55;14.00;;;7.77;;
13311;SDS011;34033;48.672;9.376;2023-03-05T09:13:21;13.07;;;7.70;;
13311;SDS011;34033;48.672;9.376;2023-03-05T09:15:52;13.33;;;8.07;;
13311;SDS011;34033;48.672;9.376;2023-03-05T09:18:18;13.63;;;8.17;;
13311;SDS011;34033;48.672;9.376;2023-03-05T09:20:45;13.20;;;8.23;;
13311;SDS011;34033;48.672;9.376;2023-03-05T09:23:10;17.27;;;8.70;;
13311;SDS011;34033;48.672;9.376;2023-03-05T09:25:38;12.40;;;7.80;;
13311;SDS011;34033;48.672;9.376;2023-03-05T09:28:04;10.80;;;7.43;;
13311;SDS011;34033;48.672;9.376;2023-03-05T09:30:29;10.80;;;6.80;;
13311;SDS011;34033;48.672;9.376;2023-03-05T09:32:55;16.03;;;7.23;;
13311;SDS011;34033;48.672;9.376;2023-03-05T09:35:20;11.93;;;7.40;;
13311;SDS011;34033;48.672;9.376;2023-03-05T09:37:45;13.67;;;7.77;;
13311;SDS011;34033;48.672;9.376;2023-03-05T09:40:12;11.23;;;6.93;;
13311;SDS011;34033;48.672;9.376;2023-03-05T09:55:50;11.83;;;7.07;;
13311;SDS011;34033;48.672;9.376;2023-03-05T09:58:24;11.43;;;7.17;;
13311;SDS011;34033;48.672;9.376;2023-03-05T10:00:53;13.10;;;6.83;;
13311;SDS011;34033;48.672;9.376;2023-03-05T10:03:27;10.33;;;6.70;;
13311;SDS011;34033;48.672;9.376;2023-03-05T10:14:14;8.50;;;6.07;;
13311;SDS011;34033;48.672;9.376;2023-03-05T10:16:52;9.43;;;6.20;;
13311;SDS011;34033;48.672;9.376;2023-03-05T10:22:20;10.23;;;6.70;;
13311;SDS011;34033;48.672;9.376;2023-03-05T10:25:04;12.63;;;7.03;;
13311;SDS011;34033;48.672;9.376;2023-03-05T10:27:48;12.57;;;6.57;;
13311;SDS011;34033;48.672;9.376;2023-03-05T10:41:14;10.10;;;6.37;;
13311;SDS011;34033;48.672;9.376;2023-03-05T10:43:54;8.87;;;6.30;;
13311;SDS011;34033;48.672;9.376;2023-03-05T10:46:23;9.33;;;5.93;;
13311;SDS011;34033;48.672;9.376;2023-03-05T10:49:19;10.27;;;5.83;;
13311;SDS011;34033;48.672;9.376;2023-03-05T10:51:51;11.07;;;6.63;;
13311;SDS011;34033;48.672;9.376;2023-03-05T10:54:34;12.73;;;6.57;;
13311;SDS011;34033;48.672;9.376;2023-03-05T10:57:03;10.10;;;6.27;;
13311;SDS011;34033;48.672;9.376;2023-03-05T10:59:53;10.27;;;6.60;;
13311;SDS011;34033;48.672;9.376;2023-03-05T11:02:21;9.03;;;5.77;;
13311;SDS011;34033;48.672;9.376;2023-03-05T11:04:47;12.57;;;6.67;;
13311;SDS011;34033;48.672;9.376;2023-03-05T11:09:40;9.77;;;6.03;;
13311;SDS011;34033;48.672;9.376;2023-03-05T11:12:11;9.00;;;6.03;;
13311;SDS011;34033;48.672;9.376;2023-03-05T11:14:42;13.83;;;6.20;;
13311;SDS011;34033;48.672;9.376;2023-03-05T11:19:56;11.10;;;6.23;;
13311;SDS011;34033;48.672;9.376;2023-03-05T11:22:41;10.93;;;6.10;;
13311;SDS011;34033;48.672;9.376;2023-03-05T11:27:55;10.97;;;6.73;;
13311;SDS011;34033;48.672;9.376;2023-03-05T11:30:29;10.50;;;6.07;;
13311;SDS011;34033;48.672;9.376;2023-03-05T11:33:10;10.33;;;5.67;;
13311;SDS011;34033;48.672;9.376;2023-03-05T11:35:40;10.83;;;6.50;;
13311;SDS011;34033;48.672;9.376;2023-03-05T11:38:28;9.17;;;5.80;;
13311;SDS011;34033;48.672;9.376;2023-03-05T11:40:54;8.93;;;6.23;;
13311;SDS011;34033;48.672;9.376;2023-03-05T11:43:22;11.57;;;6.77;;
13311;SDS011;34033;48.672;9.376;2023-03-05T11:45:50;9.47;;;6.33;;
13311;SDS011;34033;48.672;9.376;2023-03-05T11:48:19;14.23;;;6.57;;
13311;SDS011;34033;48.672;9.376;2023-03-05T11:50:57;10.03;;;6.33;;
13311;SDS011;34033;48.672;9.376;2023-03-05T11:53:28;10.07;;;5.97;;
13311;SDS011;34033;48.672;9.376;2023-03-05T11:55:58;11.03;;;6.90;;
13311;SDS011;34033;48.672;9.376;2023-03-05T12:01:12;8.90;;;6.23;;
13311;SDS011;34033;48.672;9.376;2023-03-05T12:03:43;9.80;;;6.87;;
13311;SDS011;34033;48.672;9.376;2023-03-05T12:06:54;9.40;;;6.47;;
13311;SDS011;34033;48.672;9.376;2023-03-05T12:09:01;12.87;;;6.73;;
13311;SDS011;34033;48.672;9.376;2023-03-05T12:11:32;11.37;;;6.43;;
13311;SDS011;34033;48.672;9.376;2023-03-05T12:17:10;10.90;;;6.43;;
13311;SDS011;34033;48.672;9.376;2023-03-05T12:19:54;8.23;;;6.00;;
13311;SDS011;34033;48.672;9.376;2023-03-05T12:22:38;12.83;;;6.23;;
13311;SDS011;34033;48.672;9.376;2023-03-05T12:27:56;9.27;;;6.37;;
13311;SDS011;34033;48.672;9.376;2023-03-05T12:32:59;10.90;;;6.40;;
13311;SDS011;34033;48.672;9.376;2023-03-05T12:35:30;8.53;;;6.17;;
13311;SDS011;34033;48.672;9.376;2023-03-05T12:37:56;12.27;;;6.63;;
13311;SDS011;34033;48.672;9.376;2023-03-05T12:40:24;12.17;;;5.83;;
13311;SDS011;34033;48.672;9.376;2023-03-05T12:45:23;8.27;;;5.70;;
13311;SDS011;34033;48.672;9.376;2023-03-05T12:52:50;10.67;;;6.23;;
13311;SDS011;34033;48.672;9.376;2023-03-05T12:57:52;9.23;;;5.77;;
13311;SDS011;34033;48.672;9.376;2023-03-05T13:02:57;9.00;;;5.80;;
13311;SDS011;34033;48.672;9.376;2023-03-05T13:05:28;13.27;;;6.13;;
13311;SDS011;34033;48.672;9.376;2023-03-05T13:08:12;10.83;;;6.20;;
13311;SDS011;34033;48.672;9.376;2023-03-05T13:13:34;10.27;;;6.33;;
13311;SDS011;34033;48.672;9.376;2023-03-05T13:16:02;9.87;;;5.87;;
13311;SDS011;34033;48.672;9.376;2023-03-05T13:18:29;7.90;;;5.83;;
13311;SDS011;34033;48.672;9.376;2023-03-05T13:21:03;10.43;;;6.50;;
13311;SDS011;34033;48.672;9.376;2023-03-05T13:23:31;9.53;;;5.70;;
13311;SDS011;34033;48.672;9.376;2023-03-05T13:28:36;8.77;;;5.50;;
13311;SDS011;34033;48.672;9.376;2023-03-05T13:31:09;8.13;;;5.30;;
13311;SDS011;34033;48.672;9.376;2023-03-05T13:33:38;9.27;;;5.20;;
13311;SDS011;34033;48.672;9.376;2023-03-05T13:36:04;8.20;;;5.33;;
13311;SDS011;34033;48.672;9.376;2023-03-05T13:38:39;7.13;;;5.20;;
13311;SDS011;34033;48.672;9.376;2023-03-05T13:43:44;10.07;;;5.93;;
13311;SDS011;34033;48.672;9.376;2023-03-05T13:46:32;9.83;;;5.50;;
13311;SDS011;34033;48.672;9.376;2023-03-05T13:51:50;9.60;;;5.73;;
13311;SDS011;34033;48.672;9.376;2023-03-05T13:54:20;8.40;;;5.10;;
13311;SDS011;34033;48.672;9.376;2023-03-05T13:59:28;10.07;;;5.63;;
13311;SDS011;34033;48.672;9.376;2023-03-05T14:04:56;10.73;;;5.33;;
13311;SDS011;34033;48.672;9.376;2023-03-05T14:09:55;8.80;;;5.37;;
13311;SDS011;34033;48.672;9.376;2023-03-05T14:12:23;8.90;;;5.07;;
13311;SDS011;34033;48.672;9.376;2023-03-05T14:14:51;6.67;;;4.60;;
13311;SDS011;34033;48.672;9.376;2023-03-05T14:17:29;8.90;;;5.27;;
13311;SDS011;34033;48.672;9.376;2023-03-05T14:20:16;7.77;;;5.00;;
13311;SDS011;34033;48.672;9.376;2023-03-05T14:22:47;9.60;;;5.57;;
13311;SDS011;34033;48.672;9.376;2023-03-05T14:28:18;8.37;;;5.27;;
13311;SDS011;34033;48.672;9.376;2023-03-05T14:30:51;7.90;;;5.27;;
13311;SDS011;34033;48.672;9.376;2023-03-05T14:33:21;8.17;;;5.63;;
13311;SDS011;34033;48.672;9.376;2023-03-05T14:35:48;10.17;;;5.67;;
13311;SDS011;34033;48.672;9.376;2023-03-05T14:38:19;10.57;;;6.10;;
13311;SDS011;34033;48.672;9.376;2023-03-05T14:40:47;8.53;;;5.53;;
13311;SDS011;34033;48.672;9.376;2023-03-05T14:43:13;9.50;;;5.73;;
13311;SDS011;34033;48.672;9.376;2023-03-05T14:45:39;8.77;;;5.23;;
13311;SDS011;34033;48.672;9.376;2023-03-05T14:48:07;8.83;;;5.40;;
13311;SDS011;34033;48.672;9.376;2023-03-05T14:50:37;12.60;;;5.70;;
13311;SDS011;34033;48.672;9.376;2023-03-05T14:53:20;8.77;;;5.30;;
13311;SDS011;34033;48.672;9.376;2023-03-05T14:55:48;6.43;;;4.97;;
13311;SDS011;34033;48.672;9.376;2023-03-05T14:58:21;8.87;;;5.20;;
13311;SDS011;34033;48.672;9.376;2023-03-05T15:00:50;9.80;;;5.93;;
13311;SDS011;34033;48.672;9.376;2023-03-05T15:03:19;9.67;;;5.27;;
13311;SDS011;34033;48.672;9.376;2023-03-05T15:05:45;7.33;;;5.10;;
13311;SDS011;34033;48.672;9.376;2023-03-05T15:08:25;8.57;;;5.33;;
13311;SDS011;34033;48.672;9.376;2023-03-05T15:10:52;8.17;;;5.00;;
13311;SDS011;34033;48.672;9.376;2023-03-05T15:13:18;11.07;;;5.87;;
13311;SDS011;34033;48.672;9.376;2023-03-05T15:15:44;9.07;;;4.90;;
13311;SDS011;34033;48.672;9.376;2023-03-05T15:18:12;12.77;;;5.10;;
13311;SDS011;34033;48.672;9.376;2023-03-05T15:20:40;9.90;;;5.20;;
13311;SDS011;34033;48.672;9.376;2023-03-05T15:23:06;5.93;;;4.30;;
13311;SDS011;34033;48.672;9.376;2023-03-05T15:25:31;8.03;;;4.40;;
13311;SDS011;34033;48.672;9.376;2023-03-05T15:27:57;6.40;;;4.17;;
13311;SDS011;34033;48.672;9.376;2023-03-05T15:32:55;8.00;;;4.83;;
13311;SDS011;34033;48.672;9.376;2023-03-05T15:35:22;6.07;;;4.53;;
13311;SDS011;34033;48.672;9.376;2023-03-05T15:37:48;7.80;;;4.60;;
13311;SDS011;34033;48.672;9.376;2023-03-05T15:40:14;7.13;;;4.40;;
13311;SDS011;34033;48.672;9.376;2023-03-05T15:42:40;8.30;;;4.60;;
13311;SDS011;34033;48.672;9.376;2023-03-05T15:45:05;7.80;;;4.57;;
13311;SDS011;34033;48.672;9.376;2023-03-05T15:47:31;5.27;;;3.90;;
13311;SDS011;34033;48.672;9.376;2023-03-05T15:49:56;6.57;;;4.40;;
13311;SDS011;34033;48.672;9.376;2023-03-05T15:52:22;6.00;;;4.30;;
13311;SDS011;34033;48.672;9.376;2023-03-05T15:54:47;7.93;;;4.70;;
13311;SDS011;34033;48.672;9.376;2023-03-05T15:57:12;6.33;;;4.47;;
13311;SDS011;34033;48.672;9.376;2023-03-05T15:59:38;7.47;;;4.70;;
13311;SDS011;34033;48.672;9.376;2023-03-05T16:02:03;7.80;;;4.63;;
13311;SDS011;34033;48.672;9.376;2023-03-05T16:04:29;7.83;;;4.77;;
13311;SDS011;34033;48.672;9.376;2023-03-05T16:06:54;7.50;;;4.57;;
13311;SDS011;34033;48.672;9.376;2023-03-05T16:09:23;7.20;;;4.73;;
13311;SDS011;34033;48.672;9.376;2023-03-05T16:11:53;8.63;;;4.43;;
13311;SDS011;34033;48.672;9.376;2023-03-05T16:14:23;8.03;;;4.77;;
13311;SDS011;34033;48.672;9.376;2023-03-05T16:16:51;8.67;;;4.93;;